sensor_id;sensor_type;location;lat;lon;timestamp;temperature;humidity
16327;DHT22;34812;49.846;9.610;2023-05-07T00:00:11;13.20;99.90
16327;DHT22;34812;49.846;9.610;2023-05-07T00:01:13;13.10;99.90
16327;DHT22;34812;49.846;9.610;2023-05-07T00:02:14;13.10;99.90
16327;DHT22;34812;49.846;9.610;2023-05-07T00:03:15;13.10;99.90
16327;DHT22;34812;49.846;9.610;2023-05-07T00:04:17;13.10;99.90
16327;DHT22;34812;49.846;9.610;2023-05-07T00:05:18;13.10;99.90
16327;DHT22;34812;49.846;9.610;2023-05-07T00:06:21;13.10;99.90
16327;DHT22;34812;49.846;9.610;2023-05-07T00:07:23;13.10;99.90
16327;DHT22;34812;49.846;9.610;2023-05-07T00:08:24;13.10;99.90
16327;DHT22;34812;49.846;9.610;2023-05-07T00:09:25;13.10;99.90
16327;DHT22;34812;49.846;9.610;2023-05-07T00:10:27;13.10;99.90
16327;DHT22;34812;49.846;9.610;2023-05-07T00:11:28;13.10;99.90
16327;DHT22;34812;49.846;9.610;2023-05-07T00:12:30;13.10;99.90
16327;DHT22;34812;49.846;9.610;2023-05-07T00:13:31;13.10;99.90
16327;DHT22;34812;49.846;9.610;2023-05-07T00:14:35;13.10;99.90
16327;DHT22;34812;49.846;9.610;2023-05-07T00:15:36;13.10;99.90
16327;DHT22;34812;49.846;9.610;2023-05-07T00:16:38;13.00;99.90
16327;DHT22;34812;49.846;9.610;2023-05-07T00:17:39;13.00;99.90
16327;DHT22;34812;49.846;9.610;2023-05-07T00:18:40;13.00;99.90
16327;DHT22;34812;49.846;9.610;2023-05-07T00:19:41;13.00;99.90
16327;DHT22;34812;49.846;9.610;2023-05-07T00:20:43;13.00;99.90
16327;DHT22;34812;49.846;9.610;2023-05-07T00:21:45;13.00;99.90
16327;DHT22;34812;49.846;9.610;2023-05-07T00:22:47;13.00;99.90
16327;DHT22;34812;49.846;9.610;2023-05-07T00:23:48;13.00;99.90
16327;DHT22;34812;49.846;9.610;2023-05-07T00:24:50;13.00;99.90
16327;DHT22;34812;49.846;9.610;2023-05-07T00:25:50;13.00;99.90
16327;DHT22;34812;49.846;9.610;2023-05-07T00:26:52;13.00;99.90
16327;DHT22;34812;49.846;9.610;2023-05-07T00:27:53;13.00;99.90
16327;DHT22;34812;49.846;9.610;2023-05-07T00:28:55;13.00;99.90
16327;DHT22;34812;49.846;9.610;2023-05-07T00:29:56;13.00;99.90
16327;DHT22;34812;49.846;9.610;2023-05-07T00:30:57;13.00;99.90
16327;DHT22;34812;49.846;9.610;2023-05-07T00:31:58;13.00;99.90
16327;DHT22;34812;49.846;9.610;2023-05-07T00:33:00;13.00;99.90
16327;DHT22;34812;49.846;9.610;2023-05-07T00:34:01;13.00;99.90
16327;DHT22;34812;49.846;9.610;2023-05-07T00:35:03;13.00;99.90
16327;DHT22;34812;49.846;9.610;2023-05-07T00:36:04;13.00;99.90
16327;DHT22;34812;49.846;9.610;2023-05-07T00:37:07;13.00;99.90
16327;DHT22;34812;49.846;9.610;2023-05-07T00:38:09;13.00;99.90
16327;DHT22;34812;49.846;9.610;2023-05-07T00:39:11;13.00;99.90
16327;DHT22;34812;49.846;9.610;2023-05-07T00:40:11;13.00;99.90
16327;DHT22;34812;49.846;9.610;2023-05-07T00:41:13;13.00;99.90
16327;DHT22;34812;49.846;9.610;2023-05-07T00:42:14;13.00;99.90
16327;DHT22;34812;49.846;9.610;2023-05-07T00:43:16;13.00;99.90
16327;DHT22;34812;49.846;9.610;2023-05-07T00:44:17;13.00;99.90
16327;DHT22;34812;49.846;9.610;2023-05-07T00:45:19;13.00;99.90
16327;DHT22;34812;49.846;9.610;2023-05-07T00:46:21;13.00;99.90
16327;DHT22;34812;49.846;9.610;2023-05-07T00:47:22;13.00;99.90
16327;DHT22;34812;49.846;9.610;2023-05-07T00:48:24;13.00;99.90
16327;DHT22;34812;49.846;9.610;2023-05-07T00:49:34;13.00;99.90
16327;DHT22;34812;49.846;9.610;2023-05-07T00:50:36;13.00;99.90
16327;DHT22;34812;49.846;9.610;2023-05-07T00:51:38;13.00;99.90
16327;DHT22;34812;49.846;9.610;2023-05-07T00:52:40;13.00;99.90
16327;DHT22;34812;49.846;9.610;2023-05-07T00:53:42;13.00;99.90
16327;DHT22;34812;49.846;9.610;2023-05-07T00:54:44;13.00;99.90
16327;DHT22;34812;49.846;9.610;2023-05-07T00:55:46;13.00;99.90
16327;DHT22;34812;49.846;9.610;2023-05-07T00:56:47;13.00;99.90
16327;DHT22;34812;49.846;9.610;2023-05-07T00:57:50;13.00;99.90
16327;DHT22;34812;49.846;9.610;2023-05-07T00:58:50;13.00;99.90
16327;DHT22;34812;49.846;9.610;2023-05-07T00:59:52;13.00;99.90
16327;DHT22;34812;49.846;9.610;2023-05-07T01:00:53;13.00;99.90
16327;DHT22;34812;49.846;9.610;2023-05-07T01:01:55;13.00;99.90
16327;DHT22;34812;49.846;9.610;2023-05-07T01:02:56;13.00;99.90
16327;DHT22;34812;49.846;9.610;2023-05-07T01:03:58;13.00;99.90
16327;DHT22;34812;49.846;9.610;2023-05-07T01:05:00;13.00;99.90
16327;DHT22;34812;49.846;9.610;2023-05-07T01:06:03;12.90;99.90
16327;DHT22;34812;49.846;9.610;2023-05-07T01:07:05;12.90;99.90
16327;DHT22;34812;49.846;9.610;2023-05-07T01:08:08;12.90;99.90
16327;DHT22;34812;49.846;9.610;2023-05-07T01:09:11;12.90;99.90
16327;DHT22;34812;49.846;9.610;2023-05-07T01:10:14;12.90;99.90
16327;DHT22;34812;49.846;9.610;2023-05-07T01:11:15;12.90;99.90
16327;DHT22;34812;49.846;9.610;2023-05-07T01:12:17;12.80;99.90
16327;DHT22;34812;49.846;9.610;2023-05-07T01:13:19;12.80;99.90
16327;DHT22;34812;49.846;9.610;2023-05-07T01:14:21;12.80;99.90
16327;DHT22;34812;49.846;9.610;2023-05-07T01:15:22;12.80;99.90
16327;DHT22;34812;49.846;9.610;2023-05-07T01:16:24;12.70;99.90
16327;DHT22;34812;49.846;9.610;2023-05-07T01:17:26;12.70;99.90
16327;DHT22;34812;49.846;9.610;2023-05-07T01:18:28;12.70;99.90
16327;DHT22;34812;49.846;9.610;2023-05-07T01:19:30;12.60;99.90
16327;DHT22;34812;49.846;9.610;2023-05-07T01:20:33;12.70;99.90
16327;DHT22;34812;49.846;9.610;2023-05-07T01:21:36;12.60;99.90
16327;DHT22;34812;49.846;9.610;2023-05-07T01:22:43;12.60;99.90
16327;DHT22;34812;49.846;9.610;2023-05-07T01:23:44;12.60;99.90
16327;DHT22;34812;49.846;9.610;2023-05-07T01:24:46;12.60;99.90
16327;DHT22;34812;49.846;9.610;2023-05-07T01:25:52;12.50;99.90
16327;DHT22;34812;49.846;9.610;2023-05-07T01:26:55;12.50;99.90
16327;DHT22;34812;49.846;9.610;2023-05-07T01:27:56;12.50;99.90
16327;DHT22;34812;49.846;9.610;2023-05-07T01:29:03;12.50;99.90
16327;DHT22;34812;49.846;9.610;2023-05-07T01:30:04;12.40;99.90
16327;DHT22;34812;49.846;9.610;2023-05-07T01:31:07;12.40;99.90
16327;DHT22;34812;49.846;9.610;2023-05-07T01:32:10;12.40;99.90
16327;DHT22;34812;49.846;9.610;2023-05-07T01:33:16;12.40;99.90
16327;DHT22;34812;49.846;9.610;2023-05-07T01:34:20;12.30;99.90
16327;DHT22;34812;49.846;9.610;2023-05-07T01:35:27;12.30;99.90
16327;DHT22;34812;49.846;9.610;2023-05-07T01:36:29;12.30;99.90
16327;DHT22;34812;49.846;9.610;2023-05-07T01:37:32;12.30;99.90
16327;DHT22;34812;49.846;9.610;2023-05-07T01:38:35;12.30;99.90
16327;DHT22;34812;49.846;9.610;2023-05-07T01:39:39;12.20;99.90
16327;DHT22;34812;49.846;9.610;2023-05-07T01:40:40;12.20;99.90
16327;DHT22;34812;49.846;9.610;2023-05-07T01:41:43;12.20;99.90
16327;DHT22;34812;49.846;9.610;2023-05-07T01:42:44;12.20;99.90
16327;DHT22;34812;49.846;9.610;2023-05-07T01:43:47;12.20;99.90
16327;DHT22;34812;49.846;9.610;2023-05-07T01:44:48;12.20;99.90
16327;DHT22;34812;49.846;9.610;2023-05-07T01:45:50;12.20;99.90
16327;DHT22;34812;49.846;9.610;2023-05-07T01:46:51;12.20;99.90
16327;DHT22;34812;49.846;9.610;2023-05-07T01:47:53;12.20;99.90
16327;DHT22;34812;49.846;9.610;2023-05-07T01:48:54;12.20;99.90
16327;DHT22;34812;49.846;9.610;2023-05-07T01:49:56;12.20;99.90
16327;DHT22;34812;49.846;9.610;2023-05-07T01:50:58;12.20;99.90
16327;DHT22;34812;49.846;9.610;2023-05-07T01:52:00;12.20;99.90
16327;DHT22;34812;49.846;9.610;2023-05-07T01:53:01;12.20;99.90
16327;DHT22;34812;49.846;9.610;2023-05-07T01:54:05;12.20;99.90
16327;DHT22;34812;49.846;9.610;2023-05-07T01:55:07;12.20;99.90
16327;DHT22;34812;49.846;9.610;2023-05-07T01:56:09;12.10;99.90
16327;DHT22;34812;49.846;9.610;2023-05-07T01:57:12;12.20;99.90
16327;DHT22;34812;49.846;9.610;2023-05-07T01:58:14;12.20;99.90
16327;DHT22;34812;49.846;9.610;2023-05-07T01:59:15;12.20;99.90
16327;DHT22;34812;49.846;9.610;2023-05-07T02:00:17;12.10;99.90
16327;DHT22;34812;49.846;9.610;2023-05-07T02:01:19;12.20;99.90
16327;DHT22;34812;49.846;9.610;2023-05-07T02:02:21;12.20;99.90
16327;DHT22;34812;49.846;9.610;2023-05-07T02:03:22;12.10;99.90
16327;DHT22;34812;49.846;9.610;2023-05-07T02:04:32;12.20;99.90
16327;DHT22;34812;49.846;9.610;2023-05-07T02:05:33;12.10;99.90
16327;DHT22;34812;49.846;9.610;2023-05-07T02:06:43;12.10;99.90
16327;DHT22;34812;49.846;9.610;2023-05-07T02:07:45;12.10;99.90
16327;DHT22;34812;49.846;9.610;2023-05-07T02:08:48;12.10;99.90
16327;DHT22;34812;49.846;9.610;2023-05-07T02:09:50;12.00;99.90
16327;DHT22;34812;49.846;9.610;2023-05-07T02:10:52;12.10;99.90
16327;DHT22;34812;49.846;9.610;2023-05-07T02:11:54;12.00;99.90
16327;DHT22;34812;49.846;9.610;2023-05-07T02:12:56;12.00;99.90
16327;DHT22;34812;49.846;9.610;2023-05-07T02:13:57;12.00;99.90
16327;DHT22;34812;49.846;9.610;2023-05-07T02:14:59;12.00;99.90
16327;DHT22;34812;49.846;9.610;2023-05-07T02:15:59;12.00;99.90
16327;DHT22;34812;49.846;9.610;2023-05-07T02:17:02;12.00;99.90
16327;DHT22;34812;49.846;9.610;2023-05-07T02:18:05;12.00;99.90
16327;DHT22;34812;49.846;9.610;2023-05-07T02:19:07;12.00;99.90
16327;DHT22;34812;49.846;9.610;2023-05-07T02:20:08;12.00;99.90
16327;DHT22;34812;49.846;9.610;2023-05-07T02:21:14;12.00;99.90
16327;DHT22;34812;49.846;9.610;2023-05-07T02:22:15;12.00;99.90
16327;DHT22;34812;49.846;9.610;2023-05-07T02:23:17;12.10;99.90
16327;DHT22;34812;49.846;9.610;2023-05-07T02:24:18;12.10;99.90
16327;DHT22;34812;49.846;9.610;2023-05-07T02:25:21;12.10;99.90
16327;DHT22;34812;49.846;9.610;2023-05-07T02:26:22;12.10;99.90
16327;DHT22;34812;49.846;9.610;2023-05-07T02:27:24;12.10;99.90
16327;DHT22;34812;49.846;9.610;2023-05-07T02:28:25;12.00;99.90
16327;DHT22;34812;49.846;9.610;2023-05-07T02:29:35;12.10;99.90
16327;DHT22;34812;49.846;9.610;2023-05-07T02:30:37;12.10;99.90
16327;DHT22;34812;49.846;9.610;2023-05-07T02:31:38;12.10;99.90
16327;DHT22;34812;49.846;9.610;2023-05-07T02:32:39;12.10;99.90
16327;DHT22;34812;49.846;9.610;2023-05-07T02:33:40;12.10;99.90
16327;DHT22;34812;49.846;9.610;2023-05-07T02:34:43;12.10;99.90
16327;DHT22;34812;49.846;9.610;2023-05-07T02:35:44;12.10;99.90
16327;DHT22;34812;49.846;9.610;2023-05-07T02:36:48;12.20;99.90
16327;DHT22;34812;49.846;9.610;2023-05-07T02:37:53;12.20;99.90
16327;DHT22;34812;49.846;9.610;2023-05-07T02:38:55;12.20;99.90
16327;DHT22;34812;49.846;9.610;2023-05-07T02:39:56;12.10;99.90
16327;DHT22;34812;49.846;9.610;2023-05-07T02:40:59;12.20;99.90
16327;DHT22;34812;49.846;9.610;2023-05-07T02:42:00;12.10;99.90
16327;DHT22;34812;49.846;9.610;2023-05-07T02:43:02;12.10;99.90
16327;DHT22;34812;49.846;9.610;2023-05-07T02:44:03;12.10;99.90
16327;DHT22;34812;49.846;9.610;2023-05-07T02:45:07;12.10;99.90
16327;DHT22;34812;49.846;9.610;2023-05-07T02:46:09;12.10;99.90
16327;DHT22;34812;49.846;9.610;2023-05-07T02:47:15;12.10;99.90
16327;DHT22;34812;49.846;9.610;2023-05-07T02:48:17;12.10;99.90
16327;DHT22;34812;49.846;9.610;2023-05-07T02:49:19;12.10;99.90
16327;DHT22;34812;49.846;9.610;2023-05-07T02:50:21;12.10;99.90
16327;DHT22;34812;49.846;9.610;2023-05-07T02:51:23;12.10;99.90
16327;DHT22;34812;49.846;9.610;2023-05-07T02:52:25;12.10;99.90
16327;DHT22;34812;49.846;9.610;2023-05-07T02:53:27;12.10;99.90
16327;DHT22;34812;49.846;9.610;2023-05-07T02:54:28;12.10;99.90
16327;DHT22;34812;49.846;9.610;2023-05-07T02:55:30;12.10;99.90
16327;DHT22;34812;49.846;9.610;2023-05-07T02:56:32;12.10;99.90
16327;DHT22;34812;49.846;9.610;2023-05-07T02:57:33;12.10;99.90
16327;DHT22;34812;49.846;9.610;2023-05-07T02:58:34;12.10;99.90
16327;DHT22;34812;49.846;9.610;2023-05-07T02:59:38;12.10;99.90
16327;DHT22;34812;49.846;9.610;2023-05-07T03:00:39;12.10;99.90
16327;DHT22;34812;49.846;9.610;2023-05-07T03:01:51;12.10;99.90
16327;DHT22;34812;49.846;9.610;2023-05-07T03:02:51;12.10;99.90
16327;DHT22;34812;49.846;9.610;2023-05-07T03:03:54;12.10;99.90
16327;DHT22;34812;49.846;9.610;2023-05-07T03:04:55;12.10;99.90
16327;DHT22;34812;49.846;9.610;2023-05-07T03:05:56;12.10;99.90
16327;DHT22;34812;49.846;9.610;2023-05-07T03:06:57;12.00;99.90
16327;DHT22;34812;49.846;9.610;2023-05-07T03:07:59;12.00;99.90
16327;DHT22;34812;49.846;9.610;2023-05-07T03:09:00;12.00;99.90
16327;DHT22;34812;49.846;9.610;2023-05-07T03:10:02;12.00;99.90
16327;DHT22;34812;49.846;9.610;2023-05-07T03:11:02;12.00;99.90
16327;DHT22;34812;49.846;9.610;2023-05-07T03:12:06;12.00;99.90
16327;DHT22;34812;49.846;9.610;2023-05-07T03:13:07;12.00;99.90
16327;DHT22;34812;49.846;9.610;2023-05-07T03:14:09;12.00;99.90
16327;DHT22;34812;49.846;9.610;2023-05-07T03:15:10;12.00;99.90
16327;DHT22;34812;49.846;9.610;2023-05-07T03:16:13;12.00;99.90
16327;DHT22;34812;49.846;9.610;2023-05-07T03:17:13;11.90;99.90
16327;DHT22;34812;49.846;9.610;2023-05-07T03:18:16;11.90;99.90
16327;DHT22;34812;49.846;9.610;2023-05-07T03:19:17;11.90;99.90
16327;DHT22;34812;49.846;9.610;2023-05-07T03:20:19;11.90;99.90
16327;DHT22;34812;49.846;9.610;2023-05-07T03:21:20;11.80;99.90
16327;DHT22;34812;49.846;9.610;2023-05-07T03:22:21;11.80;99.90
16327;DHT22;34812;49.846;9.610;2023-05-07T03:23:22;11.80;99.90
16327;DHT22;34812;49.846;9.610;2023-05-07T03:24:24;11.80;99.90
16327;DHT22;34812;49.846;9.610;2023-05-07T03:25:25;11.80;99.90
16327;DHT22;34812;49.846;9.610;2023-05-07T03:26:27;11.80;99.90
16327;DHT22;34812;49.846;9.610;2023-05-07T03:27:29;11.70;99.90
16327;DHT22;34812;49.846;9.610;2023-05-07T03:28:30;11.70;99.90
16327;DHT22;34812;49.846;9.610;2023-05-07T03:29:35;11.70;99.90
16327;DHT22;34812;49.846;9.610;2023-05-07T03:30:37;11.60;99.90
16327;DHT22;34812;49.846;9.610;2023-05-07T03:31:38;11.60;99.90
16327;DHT22;34812;49.846;9.610;2023-05-07T03:32:40;11.60;99.90
16327;DHT22;34812;49.846;9.610;2023-05-07T03:33:50;11.60;99.90
16327;DHT22;34812;49.846;9.610;2023-05-07T03:34:52;11.60;99.90
16327;DHT22;34812;49.846;9.610;2023-05-07T03:35:53;11.60;99.90
16327;DHT22;34812;49.846;9.610;2023-05-07T03:36:58;11.60;99.90
16327;DHT22;34812;49.846;9.610;2023-05-07T03:38:01;11.60;99.90
16327;DHT22;34812;49.846;9.610;2023-05-07T03:39:05;11.60;99.90
16327;DHT22;34812;49.846;9.610;2023-05-07T03:40:12;11.60;99.90
16327;DHT22;34812;49.846;9.610;2023-05-07T03:41:20;11.60;99.90
16327;DHT22;34812;49.846;9.610;2023-05-07T03:42:22;11.60;99.90
16327;DHT22;34812;49.846;9.610;2023-05-07T03:43:26;11.60;99.90
16327;DHT22;34812;49.846;9.610;2023-05-07T03:44:35;11.60;99.90
16327;DHT22;34812;49.846;9.610;2023-05-07T03:45:37;11.60;99.90
16327;DHT22;34812;49.846;9.610;2023-05-07T03:46:46;11.60;99.90
16327;DHT22;34812;49.846;9.610;2023-05-07T03:47:47;11.60;99.90
16327;DHT22;34812;49.846;9.610;2023-05-07T03:48:52;11.60;99.90
16327;DHT22;34812;49.846;9.610;2023-05-07T03:49:54;11.60;99.90
16327;DHT22;34812;49.846;9.610;2023-05-07T03:50:58;11.60;99.90
16327;DHT22;34812;49.846;9.610;2023-05-07T03:52:02;11.60;99.90
16327;DHT22;34812;49.846;9.610;2023-05-07T03:53:05;11.60;99.90
16327;DHT22;34812;49.846;9.610;2023-05-07T03:54:08;11.60;99.90
16327;DHT22;34812;49.846;9.610;2023-05-07T03:55:11;11.60;99.90
16327;DHT22;34812;49.846;9.610;2023-05-07T03:56:15;11.60;99.90
16327;DHT22;34812;49.846;9.610;2023-05-07T03:57:16;11.60;99.90
16327;DHT22;34812;49.846;9.610;2023-05-07T03:58:18;11.60;99.90
16327;DHT22;34812;49.846;9.610;2023-05-07T03:59:22;11.60;99.90
16327;DHT22;34812;49.846;9.610;2023-05-07T04:00:23;11.60;99.90
16327;DHT22;34812;49.846;9.610;2023-05-07T04:01:25;11.60;99.90
16327;DHT22;34812;49.846;9.610;2023-05-07T04:02:26;11.60;99.90
16327;DHT22;34812;49.846;9.610;2023-05-07T04:03:29;11.70;99.90
16327;DHT22;34812;49.846;9.610;2023-05-07T04:04:32;11.60;99.90
16327;DHT22;34812;49.846;9.610;2023-05-07T04:05:35;11.70;99.90
16327;DHT22;34812;49.846;9.610;2023-05-07T04:06:37;11.70;99.90
16327;DHT22;34812;49.846;9.610;2023-05-07T04:07:39;11.70;99.90
16327;DHT22;34812;49.846;9.610;2023-05-07T04:08:40;11.70;99.90
16327;DHT22;34812;49.846;9.610;2023-05-07T04:09:42;11.70;99.90
16327;DHT22;34812;49.846;9.610;2023-05-07T04:10:43;11.80;99.90
16327;DHT22;34812;49.846;9.610;2023-05-07T04:11:45;11.80;99.90
16327;DHT22;34812;49.846;9.610;2023-05-07T04:12:46;11.80;99.90
16327;DHT22;34812;49.846;9.610;2023-05-07T04:13:53;11.80;99.90
16327;DHT22;34812;49.846;9.610;2023-05-07T04:14:58;11.90;99.90
16327;DHT22;34812;49.846;9.610;2023-05-07T04:16:01;11.90;99.90
16327;DHT22;34812;49.846;9.610;2023-05-07T04:17:02;11.90;99.90
16327;DHT22;34812;49.846;9.610;2023-05-07T04:18:05;11.90;99.90
16327;DHT22;34812;49.846;9.610;2023-05-07T04:19:06;12.00;99.90
16327;DHT22;34812;49.846;9.610;2023-05-07T04:20:10;12.00;99.90
16327;DHT22;34812;49.846;9.610;2023-05-07T04:21:15;12.00;99.90
16327;DHT22;34812;49.846;9.610;2023-05-07T04:22:17;12.00;99.90
16327;DHT22;34812;49.846;9.610;2023-05-07T04:23:18;12.00;99.90
16327;DHT22;34812;49.846;9.610;2023-05-07T04:24:20;12.00;99.90
16327;DHT22;34812;49.846;9.610;2023-05-07T04:25:21;12.10;99.90
16327;DHT22;34812;49.846;9.610;2023-05-07T04:26:30;12.10;99.90
16327;DHT22;34812;49.846;9.610;2023-05-07T04:27:30;12.10;99.90
16327;DHT22;34812;49.846;9.610;2023-05-07T04:28:34;12.10;99.90
16327;DHT22;34812;49.846;9.610;2023-05-07T04:29:34;12.10;99.90
16327;DHT22;34812;49.846;9.610;2023-05-07T04:30:38;12.10;99.90
16327;DHT22;34812;49.846;9.610;2023-05-07T04:31:41;12.10;99.90
16327;DHT22;34812;49.846;9.610;2023-05-07T04:32:44;12.10;99.90
16327;DHT22;34812;49.846;9.610;2023-05-07T04:33:45;12.10;99.90
16327;DHT22;34812;49.846;9.610;2023-05-07T04:34:48;12.10;99.90
16327;DHT22;34812;49.846;9.610;2023-05-07T04:35:49;12.20;99.90
16327;DHT22;34812;49.846;9.610;2023-05-07T04:36:51;12.10;99.90
16327;DHT22;34812;49.846;9.610;2023-05-07T04:37:52;12.20;99.90
16327;DHT22;34812;49.846;9.610;2023-05-07T04:38:54;12.20;99.90
16327;DHT22;34812;49.846;9.610;2023-05-07T04:39:55;12.30;99.90
16327;DHT22;34812;49.846;9.610;2023-05-07T04:40:58;12.30;99.90
16327;DHT22;34812;49.846;9.610;2023-05-07T04:42:02;12.30;99.90
16327;DHT22;34812;49.846;9.610;2023-05-07T04:43:04;12.30;99.90
16327;DHT22;34812;49.846;9.610;2023-05-07T04:44:09;12.40;99.90
16327;DHT22;34812;49.846;9.610;2023-05-07T04:45:11;12.40;99.90
16327;DHT22;34812;49.846;9.610;2023-05-07T04:46:16;12.40;99.90
16327;DHT22;34812;49.846;9.610;2023-05-07T04:47:18;12.50;99.90
16327;DHT22;34812;49.846;9.610;2023-05-07T04:48:19;12.50;99.90
16327;DHT22;34812;49.846;9.610;2023-05-07T04:49:22;12.60;99.90
16327;DHT22;34812;49.846;9.610;2023-05-07T04:50:24;12.60;99.90
16327;DHT22;34812;49.846;9.610;2023-05-07T04:51:30;12.70;99.90
16327;DHT22;34812;49.846;9.610;2023-05-07T04:52:33;12.70;99.90
16327;DHT22;34812;49.846;9.610;2023-05-07T04:53:35;12.70;99.90
16327;DHT22;34812;49.846;9.610;2023-05-07T04:54:36;12.80;99.90
16327;DHT22;34812;49.846;9.610;2023-05-07T04:55:38;12.90;99.90
16327;DHT22;34812;49.846;9.610;2023-05-07T04:56:40;12.90;99.90
16327;DHT22;34812;49.846;9.610;2023-05-07T04:57:42;12.90;99.90
16327;DHT22;34812;49.846;9.610;2023-05-07T04:58:45;13.00;99.90
16327;DHT22;34812;49.846;9.610;2023-05-07T04:59:47;13.10;99.90
16327;DHT22;34812;49.846;9.610;2023-05-07T05:00:48;13.10;99.90
16327;DHT22;34812;49.846;9.610;2023-05-07T05:01:51;13.10;99.90
16327;DHT22;34812;49.846;9.610;2023-05-07T05:02:52;13.10;99.90
16327;DHT22;34812;49.846;9.610;2023-05-07T05:03:56;13.20;99.90
16327;DHT22;34812;49.846;9.610;2023-05-07T05:04:57;13.30;99.90
16327;DHT22;34812;49.846;9.610;2023-05-07T05:05:59;13.30;99.90
16327;DHT22;34812;49.846;9.610;2023-05-07T05:07:04;13.40;99.90
16327;DHT22;34812;49.846;9.610;2023-05-07T05:08:05;13.40;99.90
16327;DHT22;34812;49.846;9.610;2023-05-07T05:09:10;13.40;99.90
16327;DHT22;34812;49.846;9.610;2023-05-07T05:10:12;13.50;99.90
16327;DHT22;34812;49.846;9.610;2023-05-07T05:11:15;13.50;99.90
16327;DHT22;34812;49.846;9.610;2023-05-07T05:12:17;13.50;99.90
16327;DHT22;34812;49.846;9.610;2023-05-07T05:13:18;13.60;99.90
16327;DHT22;34812;49.846;9.610;2023-05-07T05:14:21;13.60;99.90
16327;DHT22;34812;49.846;9.610;2023-05-07T05:15:22;13.60;99.90
16327;DHT22;34812;49.846;9.610;2023-05-07T05:16:23;13.60;99.90
16327;DHT22;34812;49.846;9.610;2023-05-07T05:17:27;13.70;99.90
16327;DHT22;34812;49.846;9.610;2023-05-07T05:18:27;13.70;99.90
16327;DHT22;34812;49.846;9.610;2023-05-07T05:19:30;13.80;99.90
16327;DHT22;34812;49.846;9.610;2023-05-07T05:20:30;13.70;99.90
16327;DHT22;34812;49.846;9.610;2023-05-07T05:21:32;13.80;99.90
16327;DHT22;34812;49.846;9.610;2023-05-07T05:22:40;13.90;99.90
16327;DHT22;34812;49.846;9.610;2023-05-07T05:23:42;13.90;99.90
16327;DHT22;34812;49.846;9.610;2023-05-07T05:24:43;13.90;99.90
16327;DHT22;34812;49.846;9.610;2023-05-07T05:25:45;14.00;99.90
16327;DHT22;34812;49.846;9.610;2023-05-07T05:26:48;14.00;99.90
16327;DHT22;34812;49.846;9.610;2023-05-07T05:27:50;14.10;99.90
16327;DHT22;34812;49.846;9.610;2023-05-07T05:28:50;14.10;99.90
16327;DHT22;34812;49.846;9.610;2023-05-07T05:29:55;14.20;99.90
16327;DHT22;34812;49.846;9.610;2023-05-07T05:30:56;14.20;99.90
16327;DHT22;34812;49.846;9.610;2023-05-07T05:32:00;14.30;99.90
16327;DHT22;34812;49.846;9.610;2023-05-07T05:33:03;14.30;99.90
16327;DHT22;34812;49.846;9.610;2023-05-07T05:34:05;14.40;99.90
16327;DHT22;34812;49.846;9.610;2023-05-07T05:35:07;14.50;99.90
16327;DHT22;34812;49.846;9.610;2023-05-07T05:36:10;14.50;99.90
16327;DHT22;34812;49.846;9.610;2023-05-07T05:37:12;14.60;99.90
16327;DHT22;34812;49.846;9.610;2023-05-07T05:38:14;14.60;99.90
16327;DHT22;34812;49.846;9.610;2023-05-07T05:39:15;14.70;99.90
16327;DHT22;34812;49.846;9.610;2023-05-07T05:40:17;14.70;99.90
16327;DHT22;34812;49.846;9.610;2023-05-07T05:41:18;14.80;99.90
16327;DHT22;34812;49.846;9.610;2023-05-07T05:42:21;14.80;99.90
16327;DHT22;34812;49.846;9.610;2023-05-07T05:43:22;14.80;99.90
16327;DHT22;34812;49.846;9.610;2023-05-07T05:44:24;14.90;99.90
16327;DHT22;34812;49.846;9.610;2023-05-07T05:45:24;15.00;99.90
16327;DHT22;34812;49.846;9.610;2023-05-07T05:46:26;15.00;99.90
16327;DHT22;34812;49.846;9.610;2023-05-07T05:47:27;15.10;99.90
16327;DHT22;34812;49.846;9.610;2023-05-07T05:48:31;15.10;99.90
16327;DHT22;34812;49.846;9.610;2023-05-07T05:49:35;15.10;99.90
16327;DHT22;34812;49.846;9.610;2023-05-07T05:50:38;15.20;99.90
16327;DHT22;34812;49.846;9.610;2023-05-07T05:51:40;15.20;99.90
16327;DHT22;34812;49.846;9.610;2023-05-07T05:52:43;15.30;99.90
16327;DHT22;34812;49.846;9.610;2023-05-07T05:53:44;15.30;99.90
16327;DHT22;34812;49.846;9.610;2023-05-07T05:54:46;15.40;99.90
16327;DHT22;34812;49.846;9.610;2023-05-07T05:55:47;15.50;99.90
16327;DHT22;34812;49.846;9.610;2023-05-07T05:56:49;15.60;99.90
16327;DHT22;34812;49.846;9.610;2023-05-07T05:57:50;15.70;99.90
16327;DHT22;34812;49.846;9.610;2023-05-07T05:58:52;15.90;99.90
16327;DHT22;34812;49.846;9.610;2023-05-07T05:59:53;16.00;99.90
16327;DHT22;34812;49.846;9.610;2023-05-07T06:00:55;16.00;99.90
16327;DHT22;34812;49.846;9.610;2023-05-07T06:01:59;16.10;99.90
16327;DHT22;34812;49.846;9.610;2023-05-07T06:03:01;16.20;99.90
16327;DHT22;34812;49.846;9.610;2023-05-07T06:04:03;16.30;99.90
16327;DHT22;34812;49.846;9.610;2023-05-07T06:05:06;16.40;99.90
16327;DHT22;34812;49.846;9.610;2023-05-07T06:06:07;16.50;99.90
16327;DHT22;34812;49.846;9.610;2023-05-07T06:07:08;16.60;99.90
16327;DHT22;34812;49.846;9.610;2023-05-07T06:08:09;16.60;99.90
16327;DHT22;34812;49.846;9.610;2023-05-07T06:09:11;16.70;99.90
16327;DHT22;34812;49.846;9.610;2023-05-07T06:10:16;16.70;99.90
16327;DHT22;34812;49.846;9.610;2023-05-07T06:11:18;16.70;99.90
16327;DHT22;34812;49.846;9.610;2023-05-07T06:12:21;16.70;99.90
16327;DHT22;34812;49.846;9.610;2023-05-07T06:13:23;16.70;99.90
16327;DHT22;34812;49.846;9.610;2023-05-07T06:14:26;16.70;99.90
16327;DHT22;34812;49.846;9.610;2023-05-07T06:15:29;16.70;99.90
16327;DHT22;34812;49.846;9.610;2023-05-07T06:16:34;16.80;99.90
16327;DHT22;34812;49.846;9.610;2023-05-07T06:17:40;16.80;99.90
16327;DHT22;34812;49.846;9.610;2023-05-07T06:18:44;16.90;99.90
16327;DHT22;34812;49.846;9.610;2023-05-07T06:19:49;17.00;99.90
16327;DHT22;34812;49.846;9.610;2023-05-07T06:20:53;17.00;99.90
16327;DHT22;34812;49.846;9.610;2023-05-07T06:21:59;17.10;99.90
16327;DHT22;34812;49.846;9.610;2023-05-07T06:23:03;17.20;99.90
16327;DHT22;34812;49.846;9.610;2023-05-07T06:24:07;17.20;99.90
16327;DHT22;34812;49.846;9.610;2023-05-07T06:25:09;17.20;99.90
16327;DHT22;34812;49.846;9.610;2023-05-07T06:26:10;17.20;99.90
16327;DHT22;34812;49.846;9.610;2023-05-07T06:27:16;17.30;99.90
16327;DHT22;34812;49.846;9.610;2023-05-07T06:28:19;17.40;99.90
16327;DHT22;34812;49.846;9.610;2023-05-07T06:29:20;17.40;99.90
16327;DHT22;34812;49.846;9.610;2023-05-07T06:30:22;17.50;99.90
16327;DHT22;34812;49.846;9.610;2023-05-07T06:31:29;17.50;99.90
16327;DHT22;34812;49.846;9.610;2023-05-07T06:32:40;17.60;99.90
16327;DHT22;34812;49.846;9.610;2023-05-07T06:33:42;17.60;99.90